Time;durP1;ratioP1;P1;durP2;ratioP2;P2;SDS_P1;SDS_P2;PMS_P1;PMS_P2;Temp;Humidity;BMP_temperature;BMP_pressure;BME280_temperature;BME280_humidity;BME280_pressure;Samples;Min_cycle;Max_cycle;Signal;HPM_P1;HPM_P2
2021/11/25 00:01:09;;;;;;;;;146.25;115.50;;;;;-1.87;71.49;102512.81;4842347;29;9003;-71
2021/11/25 00:04:05;;;;;;;;;150.00;116.50;;;;;-1.98;72.68;102510.72;4842219;29;8893;-71
2021/11/25 00:07:00;;;;;;;;;159.00;137.00;;;;;-2.14;73.38;102511.06;4839993;29;8869;-71
2021/11/25 00:09:56;;;;;;;;;198.75;162.50;;;;;-2.02;73.72;102498.59;4842172;29;8935;-71
2021/11/25 00:12:55;;;;;;;;;156.75;137.00;;;;;-1.72;72.59;102493.66;4842095;29;8865;-71
2021/11/25 00:15:50;;;;;;;;;150.00;120.75;;;;;-2.21;75.23;102512.91;4829545;29;8920;-71
2021/11/25 00:18:46;;;;;;;;;134.00;120.75;;;;;-1.92;75.35;102509.03;4842154;29;9635;-70
2021/11/25 00:21:42;;;;;;;;;128.75;109.50;;;;;-1.84;74.90;102503.44;4841997;29;8893;-71
2021/11/25 00:24:23;;;;;;;;;136.25;111.50;;;;;-1.74;74.88;102504.72;4842272;29;8872;-70
2021/11/25 00:27:19;;;;;;;;;105.50;77.75;;;;;-1.54;73.41;102503.91;4841323;29;8888;-71
2021/11/25 00:30:15;;;;;;;;;134.50;107.75;;;;;-1.62;73.12;102501.41;4829691;29;8857;-71
2021/11/25 00:33:11;;;;;;;;;116.50;104.75;;;;;-1.78;73.29;102489.06;4841808;29;8868;-71
2021/11/25 00:36:06;;;;;;;;;110.25;85.50;;;;;-1.59;72.93;102495.59;4828777;29;8877;-70
2021/11/25 00:39:02;;;;;;;;;117.00;89.00;;;;;-1.68;72.53;102494.94;4841873;29;8877;-70
2021/11/25 00:41:58;;;;;;;;;116.25;93.25;;;;;-1.80;73.48;102496.56;4841535;29;9708;-70
2021/11/25 00:44:54;;;;;;;;;117.25;92.25;;;;;-1.86;73.34;102494.66;4840919;29;8892;-71
2021/11/25 00:47:21;;;;;;;;;119.50;99.25;;;;;-1.86;72.86;102484.66;4842433;29;8856;-71
2021/11/25 00:50:19;;;;;;;;;112.75;94.75;;;;;-1.51;72.02;102487.25;4842143;29;8893;-71
2021/11/25 00:53:15;;;;;;;;;113.25;89.25;;;;;-1.54;72.37;102484.94;4841426;29;8881;-71
2021/11/25 00:56:10;;;;;;;;;111.50;92.75;;;;;-1.91;72.17;102480.91;4840865;29;8888;-70
2021/11/25 00:59:06;;;;;;;;;104.50;76.25;;;;;-2.05;73.81;102478.16;4841386;29;9683;-71
2021/11/25 01:02:03;;;;;;;;;104.00;79.75;;;;;-2.09;74.38;102481.44;4841269;29;8861;-70
2021/11/25 01:04:59;;;;;;;;;110.25;88.75;;;;;-1.99;74.27;102477.34;4841126;29;8885;-71
2021/11/25 01:07:54;;;;;;;;;106.00;83.00;;;;;-1.66;73.36;102479.28;4840762;29;8880;-71
2021/11/25 01:10:23;;;;;;;;;113.75;93.75;;;;;-1.89;73.11;102479.66;4842270;29;8869;-71
2021/11/25 01:13:20;;;;;;;;;113.25;91.00;;;;;-1.71;72.75;102477.19;4841105;29;8914;-71
2021/11/25 01:16:08;;;;;;;;;119.00;89.00;;;;;-1.96;73.92;102467.94;4811872;29;8899;-72
2021/11/25 01:19:04;;;;;;;;;109.50;90.50;;;;;-1.94;74.01;102473.16;4841251;29;8869;-71
2021/11/25 01:21:59;;;;;;;;;107.50;79.00;;;;;-1.60;72.51;102467.63;4841163;29;8915;-70
2021/11/25 01:24:55;;;;;;;;;132.00;100.00;;;;;-1.97;72.45;102469.81;4840967;29;8973;-70
2021/11/25 01:27:51;;;;;;;;;96.50;72.75;;;;;-1.85;73.13;102469.22;4839605;29;8873;-70
2021/11/25 01:30:49;;;;;;;;;111.50;92.25;;;;;-1.87;73.26;102466.72;4841084;29;8927;-70
2021/11/25 01:33:44;;;;;;;;;114.50;93.75;;;;;-1.78;73.39;102470.06;4840969;29;9636;-70
2021/11/25 01:36:40;;;;;;;;;120.25;97.00;;;;;-1.64;72.46;102463.63;4841480;29;9005;-70
2021/11/25 01:39:36;;;;;;;;;118.50;93.00;;;;;-1.87;73.27;102472.13;4841061;29;9620;-70
2021/11/25 01:42:32;;;;;;;;;117.25;91.00;;;;;-1.88;73.42;102475.06;4840819;29;9667;-70
2021/11/25 01:45:29;;;;;;;;;116.50;105.00;;;;;-2.16;73.73;102467.03;4840712;29;8873;-69
2021/11/25 01:48:25;;;;;;;;;117.00;99.25;;;;;-1.96;73.33;102474.19;4810614;29;8943;-69
2021/11/25 01:51:22;;;;;;;;;112.25;96.25;;;;;-2.16;74.14;102467.88;4822006;29;8883;-69
2021/11/25 01:53:51;;;;;;;;;83.25;57.25;;;;;-2.28;74.16;102466.78;4830224;29;8884;-70
2021/11/25 01:56:47;;;;;;;;;116.00;96.75;;;;;-2.13;73.77;102466.66;4840334;29;8873;-69
2021/11/25 01:59:43;;;;;;;;;112.00;96.00;;;;;-2.21;73.93;102473.09;4840981;29;8949;-70
2021/11/25 02:02:39;;;;;;;;;116.00;93.75;;;;;-2.28;74.23;102466.78;4840354;29;8873;-70
2021/11/25 02:05:20;;;;;;;;;110.00;84.75;;;;;-2.09;74.12;102473.31;4823315;29;8895;-70
2021/11/25 02:08:16;;;;;;;;;112.00;80.75;;;;;-2.11;75.13;102467.28;4840631;29;8885;-70
2021/11/25 02:11:14;;;;;;;;;103.75;79.00;;;;;-2.14;75.65;102465.81;4828544;29;8892;-70
2021/11/25 02:14:10;;;;;;;;;102.00;76.50;;;;;-2.03;74.89;102475.22;4841282;29;8881;-69
2021/11/25 02:17:05;;;;;;;;;107.00;88.00;;;;;-2.22;74.57;102481.38;4843579;29;8857;-70
2021/11/25 02:19:49;;;;;;;;;110.25;87.50;;;;;-2.32;75.45;102477.19;4844665;29;8916;-70
2021/11/25 02:22:18;;;;;;;;;121.00;96.75;;;;;-2.36;74.85;102488.66;4829004;29;8980;-69
2021/11/25 02:25:00;;;;;;;;;107.50;79.25;;;;;-2.43;74.93;102487.78;4844775;29;8896;-70
2021/11/25 02:27:59;;;;;;;;;108.00;89.00;;;;;-2.53;75.71;102485.41;4844450;29;8881;-71
2021/11/25 02:30:55;;;;;;;;;97.00;78.25;;;;;-2.53;75.78;102485.41;4843904;29;9690;-69
2021/11/25 02:33:50;;;;;;;;;109.00;82.50;;;;;-2.43;75.27;102479.66;4843777;29;8997;-70
2021/11/25 02:36:46;;;;;;;;;107.00;88.50;;;;;-2.37;75.81;102478.84;4843450;29;8964;-70
2021/11/25 02:39:42;;;;;;;;;109.75;90.00;;;;;-2.30;75.29;102479.69;4843786;29;8902;-70
2021/11/25 02:42:38;;;;;;;;;105.25;82.50;;;;;-2.34;75.81;102478.44;4843642;29;8873;-70
2021/11/25 02:45:51;;;;;;;;;106.75;86.50;;;;;-2.21;75.93;102470.38;4843626;29;8881;-70
2021/11/25 02:48:50;;;;;;;;;104.50;76.75;;;;;-2.10;75.62;102469.78;4838963;29;8967;-70
2021/11/25 02:51:45;;;;;;;;;103.00;79.50;;;;;-1.94;75.79;102471.28;4825164;29;8867;-69
2021/11/25 02:54:43;;;;;;;;;101.25;77.00;;;;;-1.99;75.79;102476.50;4824946;29;8872;-70
2021/11/25 02:57:40;;;;;;;;;104.75;79.25;;;;;-1.93;76.26;102488.38;4836483;29;8899;-69
2021/11/25 03:00:40;;;;;;;;;105.00;78.25;;;;;-1.85;76.22;102480.06;4843260;29;9730;-70
2021/11/25 03:03:36;;;;;;;;;101.50;75.25;;;;;-1.64;75.73;102477.19;4830753;29;8880;-70
2021/11/25 03:06:18;;;;;;;;;93.00;70.50;;;;;-1.85;76.58;102477.34;4844404;29;8884;-70
2021/11/25 03:09:13;;;;;;;;;99.75;76.00;;;;;-1.63;76.36;102465.28;4842697;29;8888;-69
2021/11/25 03:12:09;;;;;;;;;105.25;76.25;;;;;-1.54;76.25;102474.91;4842523;29;8903;-70
2021/11/25 03:15:05;;;;;;;;;92.00;69.75;;;;;-1.44;76.27;102483.50;4834225;29;8865;-70
2021/11/25 03:18:01;;;;;;;;;102.00;76.50;;;;;-1.42;76.26;102475.97;4841912;29;8885;-70
2021/11/25 03:20:58;;;;;;;;;107.00;80.50;;;;;-1.43;76.02;102479.72;4841872;29;8893;-70
2021/11/25 03:23:55;;;;;;;;;118.00;87.50;;;;;-1.48;76.57;102475.97;4842816;29;8908;-70
2021/11/25 03:26:51;;;;;;;;;112.50;91.25;;;;;-1.45;76.08;102470.97;4841227;29;8924;-70
2021/11/25 03:29:47;;;;;;;;;116.50;94.75;;;;;-1.37;75.63;102463.66;4824538;29;9704;-70
2021/11/25 03:32:42;;;;;;;;;117.25;99.25;;;;;-1.40;76.03;102470.34;4842472;29;8873;-70
2021/11/25 03:35:39;;;;;;;;;114.00;89.75;;;;;-1.50;76.11;102462.59;4832249;29;8879;-70
2021/11/25 03:38:29;;;;;;;;;116.50;86.25;;;;;-1.40;76.29;102468.44;4829966;29;8861;-69
2021/11/25 03:41:26;;;;;;;;;109.00;87.00;;;;;-1.25;76.06;102461.97;4843139;29;8896;-69
2021/11/25 03:44:21;;;;;;;;;97.25;77.50;;;;;-1.30;76.52;102459.09;4842037;29;9651;-69
2021/11/25 03:47:17;;;;;;;;;96.25;76.00;;;;;-1.27;76.14;102450.50;4841781;29;8881;-70
2021/11/25 03:50:14;;;;;;;;;106.00;81.25;;;;;-1.24;76.26;102445.47;4835726;29;8983;-69
2021/11/25 03:53:10;;;;;;;;;92.50;70.00;;;;;-1.20;76.79;102449.47;4838676;29;8873;-69
2021/11/25 03:56:06;;;;;;;;;106.25;87.50;;;;;-1.17;76.12;102465.31;4842178;29;8924;-69
2021/11/25 03:59:02;;;;;;;;;106.25;81.25;;;;;-1.27;76.16;102458.66;4829353;29;8881;-69
2021/11/25 04:01:58;;;;;;;;;105.25;79.00;;;;;-1.15;76.02;102463.25;4841284;29;8983;-69
2021/11/25 04:04:54;;;;;;;;;109.50;88.25;;;;;-0.99;75.23;102456.56;4841720;29;8885;-71
2021/11/25 04:07:50;;;;;;;;;108.00;83.00;;;;;-0.91;75.18;102458.22;4841957;29;8972;-70
2021/11/25 04:10:18;;;;;;;;;99.75;76.50;;;;;-0.82;74.90;102465.09;4826870;29;8988;-71
2021/11/25 04:13:14;;;;;;;;;113.50;86.25;;;;;-1.15;75.06;102465.97;4829846;29;8895;-70
2021/11/25 04:16:10;;;;;;;;;113.75;90.25;;;;;-1.21;75.23;102466.81;4842264;29;8884;-70
2021/11/25 04:19:05;;;;;;;;;104.50;84.75;;;;;-1.22;75.26;102464.31;4841736;29;8934;-70
2021/11/25 04:22:02;;;;;;;;;108.50;84.00;;;;;-1.15;74.18;102459.66;4811645;29;8856;-70
2021/11/25 04:24:58;;;;;;;;;95.00;75.00;;;;;-1.12;74.21;102470.13;4823659;29;8871;-70
2021/11/25 04:27:54;;;;;;;;;110.00;87.25;;;;;-1.08;74.39;102468.66;4823801;29;8879;-70
2021/11/25 04:35:28;;;;;;;;;112.00;92.25;;;;;-1.11;74.00;102466.38;4831787;29;8873;-70
2021/11/25 04:37:20;;;;;;;;;109.00;83.75;;;;;-1.46;74.92;102469.31;4823183;29;8932;-70
2021/11/25 04:40:16;;;;;;;;;106.25;78.50;;;;;-1.46;75.11;102468.44;4828010;29;8868;-69
2021/11/25 04:43:12;;;;;;;;;89.00;66.00;;;;;-1.44;74.21;102474.53;4841357;29;8853;-70
2021/11/25 04:46:08;;;;;;;;;111.25;96.75;;;;;-1.58;75.26;102470.94;4824059;29;8864;-71
2021/11/25 04:49:05;;;;;;;;;111.75;87.50;;;;;-1.59;75.64;102471.16;4824380;29;8879;-70
2021/11/25 04:52:00;;;;;;;;;109.75;82.50;;;;;-1.36;74.25;102481.63;4823339;29;8883;-71
2021/11/25 04:54:56;;;;;;;;;113.50;88.00;;;;;-1.66;75.11;102478.44;4823281;29;8888;-70
2021/11/25 04:57:52;;;;;;;;;107.75;83.75;;;;;-1.49;74.80;102472.41;4823501;29;8863;-71
2021/11/25 05:00:48;;;;;;;;;105.75;82.00;;;;;-1.51;75.08;102482.66;4831992;29;9612;-71
2021/11/25 05:03:43;;;;;;;;;107.50;82.25;;;;;-1.53;74.77;102479.31;4841349;29;8873;-70
2021/11/25 05:06:11;;;;;;;;;92.00;68.50;;;;;-1.58;74.13;102483.69;4842634;29;9007;-72
2021/11/25 05:09:07;;;;;;;;;111.00;89.25;;;;;-1.63;74.59;102492.44;4841023;29;8905;-70
2021/11/25 05:12:02;;;;;;;;;106.00;88.50;;;;;-1.60;74.41;102497.47;4840962;29;8987;-71
2021/11/25 05:14:58;;;;;;;;;108.25;89.25;;;;;-1.76;74.18;102498.69;4841157;29;8889;-71
2021/11/25 05:17:47;;;;;;;;;114.50;90.75;;;;;-1.78;74.52;102498.03;4842023;29;8908;-71
2021/11/25 05:20:43;;;;;;;;;113.50;95.50;;;;;-1.70;74.02;102502.44;4841071;29;9580;-71
2021/11/25 05:23:24;;;;;;;;;116.75;101.00;;;;;-1.73;73.79;102503.69;4827274;29;8877;-72
2021/11/25 05:26:07;;;;;;;;;112.00;91.00;;;;;-1.99;74.79;102501.75;4841184;29;8896;-71
2021/11/25 05:29:02;;;;;;;;;114.25;93.50;;;;;-1.96;75.15;102500.50;4810890;29;8893;-71
2021/11/25 05:31:58;;;;;;;;;114.50;95.75;;;;;-1.70;74.34;102508.69;4833345;29;8873;-70
2021/11/25 05:34:54;;;;;;;;;113.25;96.75;;;;;-1.66;74.49;102505.59;4828569;29;8869;-71
2021/11/25 05:37:50;;;;;;;;;116.75;94.25;;;;;-1.58;73.98;102511.66;4840261;29;8860;-71
2021/11/25 05:40:45;;;;;;;;;128.75;111.25;;;;;-1.43;73.60;102512.31;4841182;29;8875;-70
2021/11/25 05:43:41;;;;;;;;;108.00;79.50;;;;;-1.45;73.81;102510.84;4829287;29;8883;-70
2021/11/25 05:46:37;;;;;;;;;114.50;92.00;;;;;-1.27;73.56;102507.53;4840115;29;8901;-69
2021/11/25 05:49:32;;;;;;;;;124.00;98.75;;;;;-1.22;73.61;102514.00;4840211;29;8939;-69
2021/11/25 05:52:00;;;;;;;;;89.50;67.75;;;;;-1.22;73.43;102511.28;4840828;29;8969;-69
2021/11/25 05:54:56;;;;;;;;;101.50;75.00;;;;;-1.05;73.23;102519.84;4842926;29;8892;-70
2021/11/25 05:57:53;;;;;;;;;119.25;95.25;;;;;-0.99;73.72;102515.47;4843636;29;8872;-69
2021/11/25 06:00:49;;;;;;;;;123.50;97.00;;;;;-0.93;73.40;102522.75;4843700;29;9627;-69
2021/11/25 06:03:21;;;;;;;;;126.75;105.75;;;;;-0.85;73.34;102520.66;4843896;29;8916;-69
2021/11/25 06:06:17;;;;;;;;;137.50;108.00;;;;;-0.71;72.91;102526.09;4839425;29;8894;-70
2021/11/25 06:08:58;;;;;;;;;126.50;110.50;;;;;-0.66;72.51;102521.69;4844433;29;8887;-70
2021/11/25 06:11:27;;;;;;;;;141.50;123.75;;;;;-0.69;72.84;102527.56;4844652;29;9047;-68
2021/11/25 06:13:58;;;;;;;;;159.75;128.75;;;;;-0.50;72.64;102525.03;4844771;29;8917;-69
2021/11/25 06:16:26;;;;;;;;;163.75;125.75;;;;;-0.33;72.47;102532.50;4826469;29;8880;-69
2021/11/25 06:18:57;;;;;;;;;151.25;122.25;;;;;-0.32;71.97;102538.75;4811145;29;8918;-69
2021/11/25 06:21:24;;;;;;;;;140.50;115.00;;;;;-0.18;72.64;102539.56;4810620;29;8879;-70
2021/11/25 06:24:14;;;;;;;;;153.75;116.00;;;;;-0.24;72.92;102532.25;4826178;29;8929;-69
2021/11/25 06:26:44;;;;;;;;;93.25;77.00;;;;;-0.49;74.78;102535.69;4826519;29;8883;-69
2021/11/25 06:29:12;;;;;;;;;141.50;120.75;;;;;-0.01;74.04;102540.75;4815370;29;8897;-70
2021/11/25 06:32:09;;;;;;;;;121.75;103.50;;;;;0.28;74.01;102533.94;4839856;29;8904;-70
2021/11/25 06:34:38;;;;;;;;;129.50;111.50;;;;;0.50;73.45;102532.56;4844625;29;8983;-70
2021/11/25 06:37:20;;;;;;;;;162.75;130.00;;;;;0.65;72.98;102534.97;4812361;29;8959;-70
2021/11/25 06:40:21;;;;;;;;;137.75;108.50;;;;;0.72;72.30;102532.22;4826109;29;8894;-69
2021/11/25 06:43:20;;;;;;;;;117.25;95.50;;;;;0.89;71.87;102527.06;4824231;29;8880;-69
2021/11/25 06:46:02;;;;;;;;;129.00;107.00;;;;;1.09;72.15;102533.19;4825124;29;8902;-69
2021/11/25 06:48:43;;;;;;;;;108.25;80.75;;;;;1.17;71.91;102535.63;4843457;29;8877;-68
2021/11/25 06:51:41;;;;;;;;;105.00;77.00;;;;;1.39;72.07;102534.16;4831264;29;8911;-68
2021/11/25 06:54:36;;;;;;;;;98.50;78.00;;;;;1.66;71.55;102528.41;4841614;29;8940;-68
2021/11/25 06:57:04;;;;;;;;;136.00;109.25;;;;;1.82;70.88;102529.72;4843414;29;8917;-68
2021/11/25 07:00:00;;;;;;;;;132.50;101.25;;;;;1.89;70.93;102534.03;4842535;29;9659;-68
2021/11/25 07:02:28;;;;;;;;;125.50;100.00;;;;;2.12;70.75;102536.06;4843970;29;8877;-64
2021/11/25 07:05:25;;;;;;;;;120.25;102.75;;;;;2.14;70.35;102531.19;4843146;29;8865;-64
2021/11/25 07:08:21;;;;;;;;;103.00;75.25;;;;;2.30;70.28;102528.91;4843076;29;8881;-64
2021/11/25 07:10:49;;;;;;;;;102.00;76.25;;;;;2.38;69.60;102523.13;4843629;29;8942;-65
2021/11/25 07:13:44;;;;;;;;;111.50;87.50;;;;;2.56;69.67;102514.88;4835794;29;8876;-65
2021/11/25 07:16:26;;;;;;;;;91.33;71.67;;;;;2.75;68.97;102519.19;4842651;29;8889;-64
2021/11/25 07:18:54;;;;;;;;;91.67;72.67;;;;;2.88;68.35;102528.25;4842961;29;8934;-65
2021/11/25 07:21:49;;;;;;;;;94.67;72.67;;;;;3.04;68.45;102522.94;4842676;29;9616;-65
2021/11/25 07:24:46;;;;;;;;;101.33;78.00;;;;;3.13;67.96;102525.31;4842295;29;8869;-65
2021/11/25 07:27:43;;;;;;;;;81.33;65.67;;;;;3.23;68.43;102517.38;4841015;29;8920;-65
2021/11/25 07:30:38;;;;;;;;;84.33;67.00;;;;;3.24;68.44;102517.16;4840393;29;8873;-65
2021/11/25 07:33:20;;;;;;;;;87.33;70.33;;;;;3.48;67.41;102528.91;4840528;29;8883;-65
2021/11/25 07:36:17;;;;;;;;;87.67;67.67;;;;;3.71;66.97;102513.53;4824369;29;8875;-65
2021/11/25 07:38:45;;;;;;;;;84.67;64.00;;;;;3.77;67.55;102521.63;4825367;29;8883;-65
2021/11/25 07:41:26;;;;;;;;;87.00;69.33;;;;;4.04;66.45;102518.34;4840082;29;8893;-65
2021/11/25 07:43:54;;;;;;;;;83.67;64.67;;;;;4.32;65.97;102529.31;4838293;29;8916;-65
2021/11/25 07:46:21;;;;;;;;;90.00;67.67;;;;;4.60;65.32;102525.75;4841301;29;8881;-65
2021/11/25 07:48:49;;;;;;;;;56.33;49.67;;;;;4.84;65.44;102520.13;4842825;29;9657;-65
2021/11/25 07:51:17;;;;;;;;;60.75;50.50;;;;;5.13;65.77;102523.63;4843461;29;12578;-65
2021/11/25 07:53:45;;;;;;;;;50.50;45.50;;;;;5.25;65.15;102519.72;4838089;29;11798;-65
2021/11/25 07:56:13;;;;;;;;;37.50;36.50;;;;;5.52;64.68;102525.34;4818088;29;11755;-65
2021/11/25 07:59:08;;;;;;;;;39.00;34.75;;;;;5.50;64.87;102510.19;4829971;29;11805;-66
2021/11/25 08:02:04;;;;;;;;;26.25;26.25;;;;;4.93;66.23;102511.25;4826398;29;11771;-66
2021/11/25 08:05:00;;;;;;;;;22.75;20.50;;;;;4.87;66.85;102516.91;4841104;29;11743;-68
2021/11/25 08:07:58;;;;;;;;;28.50;24.75;;;;;4.99;66.88;102512.19;4839924;29;11744;-66
2021/11/25 08:10:28;;;;;;;;;31.50;24.25;;;;;4.64;67.98;102513.22;4841052;29;11772;-66
2021/11/25 08:13:25;;;;;;;;;26.50;26.50;;;;;4.70;67.84;102511.41;4828536;29;11747;-65
2021/11/25 08:15:52;;;;;;;;;28.00;26.75;;;;;5.46;66.06;102514.53;4842643;29;11913;-67
2021/11/25 08:18:20;;;;;;;;;36.75;35.50;;;;;5.88;65.00;102511.25;4842117;29;11861;-65
2021/11/25 08:20:48;;;;;;;;;27.25;26.75;;;;;5.63;64.77;102518.09;4840926;29;11739;-65
2021/11/25 08:23:44;;;;;;;;;33.75;30.25;;;;;6.21;63.25;102510.31;4841616;29;11859;-65
2021/11/25 08:26:12;;;;;;;;;31.00;30.00;;;;;6.46;62.71;102509.78;4842819;29;11756;-65
2021/11/25 08:28:41;;;;;;;;;28.00;26.00;;;;;6.61;62.58;102516.28;4842773;29;11758;-65
2021/11/25 08:31:09;;;;;;;;;35.75;34.25;;;;;6.61;62.07;102510.78;4825824;29;11780;-65
2021/11/25 08:33:37;;;;;;;;;31.75;31.25;;;;;6.85;61.24;102505.75;4842294;29;11834;-65
2021/11/25 08:36:05;;;;;;;;;26.75;26.75;;;;;6.86;61.56;102501.09;4842669;29;11760;-66
2021/11/25 08:38:35;;;;;;;;;29.75;29.75;;;;;6.88;61.13;102498.91;4826441;29;11766;-65
2021/11/25 08:41:03;;;;;;;;;40.75;34.00;;;;;7.06;60.93;102497.69;4842308;29;11751;-65
2021/11/25 08:43:31;;;;;;;;;28.75;27.00;;;;;7.25;60.93;102493.41;4842242;29;11757;-66
2021/11/25 08:46:07;;;;;;;;;29.00;27.75;;;;;7.27;60.34;102493.16;4842610;29;11754;-65
2021/11/25 08:48:34;;;;;;;;;23.00;23.00;;;;;7.55;59.32;102494.72;4842387;29;11767;-66
2021/11/25 08:51:03;;;;;;;;;26.25;25.25;;;;;7.20;59.67;102488.69;4842297;29;11734;-66
2021/11/25 08:53:32;;;;;;;;;21.75;21.75;;;;;7.57;59.55;102487.00;4826232;29;12546;-65
2021/11/25 08:55:59;;;;;;;;;26.25;26.25;;;;;7.88;57.86;102474.22;4842382;29;11739;-65
2021/11/25 08:58:28;;;;;;;;;24.25;24.25;;;;;7.74;58.08;102477.47;4842335;29;11901;-65
2021/11/25 09:00:57;;;;;;;;;20.00;18.25;;;;;7.91;56.07;102480.03;4842125;29;11743;-66
2021/11/25 09:03:25;;;;;;;;;22.50;21.00;;;;;8.26;55.37;102470.19;4841918;29;11726;-65
2021/11/25 09:06:00;;;;;;;;;19.25;19.25;;;;;8.17;54.38;102471.84;4842189;29;11693;-66
2021/11/25 09:08:29;;;;;;;;;16.75;16.75;;;;;8.17;54.29;102469.91;4842001;29;11742;-66
2021/11/25 09:10:57;;;;;;;;;16.25;16.25;;;;;8.29;54.11;102477.94;4826016;29;11813;-66
2021/11/25 09:13:27;;;;;;;;;22.00;20.50;;;;;8.43;52.72;102470.81;4841985;29;11682;-67
2021/11/25 09:15:58;;;;;;;;;19.25;17.50;;;;;8.29;53.64;102473.25;4841861;29;11828;-66
2021/11/25 09:18:29;;;;;;;;;18.25;18.25;;;;;8.47;53.00;102458.16;4841777;29;11687;-67
2021/11/25 09:20:57;;;;;;;;;16.00;15.50;;;;;8.68;53.07;102455.41;4842108;29;11813;-66
2021/11/25 09:23:26;;;;;;;;;15.25;14.00;;;;;8.66;50.68;102458.44;4843163;29;11778;-66
2021/11/25 09:25:54;;;;;;;;;17.25;16.00;;;;;8.61;51.80;102453.75;4846010;29;11748;-68
2021/11/25 09:28:24;;;;;;;;;20.00;20.00;;;;;8.88;52.43;102449.88;4845884;29;12449;-66
2021/11/25 09:30:53;;;;;;;;;17.50;17.50;;;;;8.91;52.60;102452.94;4846045;29;11685;-66
2021/11/25 09:33:22;;;;;;;;;13.00;13.00;;;;;8.90;52.54;102455.97;4829371;29;11660;-66
2021/11/25 09:35:50;;;;;;;;;17.00;16.25;;;;;9.09;51.42;102457.03;4845801;29;11643;-66
2021/11/25 09:38:19;;;;;;;;;17.50;17.50;;;;;9.29;51.64;102449.84;4845761;29;11690;-66
2021/11/25 09:40:49;;;;;;;;;16.50;16.25;;;;;9.40;50.55;102455.06;4845763;29;11812;-66
2021/11/25 09:43:24;;;;;;;;;15.25;14.75;;;;;9.40;50.32;102451.47;4845551;29;12447;-66
2021/11/25 09:45:53;;;;;;;;;14.25;13.00;;;;;9.35;49.43;102457.81;4829215;29;11668;-67
2021/11/25 09:48:27;;;;;;;;;16.00;15.50;;;;;9.14;48.63;102454.28;4845559;29;11649;-67
2021/11/25 09:51:06;;;;;;;;;16.25;16.25;;;;;9.15;49.13;102450.41;4845697;29;11706;-66
2021/11/25 09:53:36;;;;;;;;;14.75;14.25;;;;;9.14;48.67;102448.75;4845596;29;11672;-66
2021/11/25 09:56:06;;;;;;;;;13.00;13.00;;;;;9.37;47.74;102444.56;4845311;29;11691;-66
2021/11/25 09:58:36;;;;;;;;;14.50;14.50;;;;;9.32;48.37;102449.28;4845488;29;11669;-66
2021/11/25 10:01:06;;;;;;;;;17.00;17.00;;;;;9.40;48.34;102437.66;4845377;29;11446;-65
2021/11/25 10:03:37;;;;;;;;;14.25;14.25;;;;;9.39;46.46;102433.25;4842289;29;11823;-66
2021/11/25 10:06:05;;;;;;;;;11.25;11.25;;;;;8.42;47.88;102430.56;4827917;29;11766;-66
2021/11/25 10:09:01;;;;;;;;;17.00;15.25;;;;;8.72;49.21;102432.50;4821892;29;11709;-66
2021/11/25 10:11:51;;;;;;;;;12.50;12.50;;;;;9.07;47.58;102422.56;4844014;29;11661;-65
2021/11/25 10:14:47;;;;;;;;;12.00;12.00;;;;;9.18;46.62;102419.47;4844102;29;11536;-67
2021/11/25 10:17:14;;;;;;;;;9.25;9.25;;;;;8.86;47.16;102419.81;4845130;29;11638;-65
2021/11/25 10:20:07;;;;;;;;;11.75;11.75;;;;;9.16;46.28;102413.41;4828483;29;11670;-67
2021/11/25 10:22:35;;;;;;;;;11.25;11.25;;;;;8.93;47.80;102405.72;4844701;29;12454;-67
2021/11/25 10:25:03;;;;;;;;;12.25;12.25;;;;;9.08;47.27;102405.72;4844912;29;11666;-66
2021/11/25 10:27:30;;;;;;;;;8.50;8.50;;;;;9.16;47.11;102405.13;4844884;29;11676;-66
2021/11/25 10:30:13;;;;;;;;;12.00;11.50;;;;;9.34;46.95;102402.88;4844677;29;12459;-66
2021/11/25 10:32:56;;;;;;;;;15.50;15.50;;;;;9.94;45.68;102393.50;4844696;29;11671;-67
2021/11/25 10:35:30;;;;;;;;;24.75;17.25;;;;;9.78;45.95;102397.44;4827643;29;11661;-66
2021/11/25 10:40:35;;;;;;;;;11.25;9.50;;;;;9.70;45.02;102387.81;4844739;29;11262;-66
2021/11/25 10:43:29;;;;;;;;;18.50;16.50;;;;;9.65;45.74;102382.31;4828410;29;11618;-66
2021/11/25 10:45:57;;;;;;;;;9.25;9.25;;;;;9.85;45.00;102380.56;4844707;29;11825;-67
2021/11/25 10:48:35;;;;;;;;;18.00;18.00;;;;;9.72;45.02;102377.31;4828512;29;11659;-66
2021/11/25 10:51:30;;;;;;;;;11.00;11.00;;;;;10.05;44.11;102382.41;4828990;29;11695;-66
2021/11/25 10:54:18;;;;;;;;;11.50;11.50;;;;;9.99;43.73;102371.34;4844262;29;11668;-64
2021/11/25 10:56:49;;;;;;;;;18.00;16.00;;;;;9.95;44.48;102363.91;4844367;29;11290;-65
2021/11/25 10:59:33;;;;;;;;;11.50;11.50;;;;;9.83;44.29;102372.56;4844487;29;11809;-67
2021/11/25 11:02:01;;;;;;;;;17.75;11.50;;;;;9.73;43.86;102359.59;4827420;29;11334;-65
2021/11/25 11:04:43;;;;;;;;;8.25;8.25;;;;;9.62;44.50;102369.06;4844016;29;11440;-66
2021/11/25 11:07:22;;;;;;;;;23.25;19.50;;;;;9.71;44.90;102367.38;4844275;29;11837;-67
2021/11/25 11:09:50;;;;;;;;;15.25;12.50;;;;;9.87;44.47;102364.50;4844223;29;11757;-66
2021/11/25 11:12:48;;;;;;;;;12.50;12.25;;;;;9.88;43.90;102358.69;4843824;29;11316;-66
2021/11/25 11:20:47;;;;;;;;;17.00;15.75;;;;;9.58;45.32;102354.16;4843939;29;11286;-65
2021/11/25 11:23:19;;;;;;;;;12.75;12.75;;;;;9.51;45.38;102353.66;4827211;29;11448;-66
2021/11/25 11:25:48;;;;;;;;;16.25;16.25;;;;;9.52;46.09;102346.22;4843739;29;11343;-66
2021/11/25 11:28:17;;;;;;;;;14.25;13.75;;;;;9.88;45.30;102353.16;4843489;29;11439;-66
2021/11/25 11:30:47;;;;;;;;;13.25;13.25;;;;;9.36;45.77;102340.75;4843725;29;11424;-65
2021/11/25 11:33:17;;;;;;;;;13.75;13.25;;;;;9.53;44.88;102334.88;4843197;29;11321;-64
2021/11/25 11:35:46;;;;;;;;;17.75;17.75;;;;;9.66;44.80;102333.41;4843538;29;12075;-64
2021/11/25 11:38:14;;;;;;;;;15.00;14.50;;;;;9.95;43.70;102328.81;4843835;29;11381;-65
2021/11/25 11:40:43;;;;;;;;;18.25;17.75;;;;;9.81;44.00;102330.53;4843487;29;11454;-65
2021/11/25 11:43:13;;;;;;;;;13.75;13.75;;;;;9.04;44.75;102327.31;4843482;29;11401;-66
2021/11/25 11:45:42;;;;;;;;;16.50;16.50;;;;;8.78;45.88;102331.25;4843645;29;11257;-66
2021/11/25 11:48:14;;;;;;;;;20.25;19.25;;;;;8.86;46.42;102327.94;4842239;29;11749;-66
2021/11/25 11:50:53;;;;;;;;;13.00;12.00;;;;;8.70;46.44;102320.78;4835264;29;11696;-66
2021/11/25 11:53:25;;;;;;;;;13.25;12.50;;;;;8.81;46.35;102325.16;4842559;29;11770;-65
2021/11/25 11:56:08;;;;;;;;;11.25;11.25;;;;;7.57;48.92;102327.28;4841614;29;11671;-66
2021/11/25 11:59:06;;;;;;;;;19.50;16.50;;;;;8.11;47.49;102322.16;4842221;29;11680;-65
2021/11/25 12:01:34;;;;;;;;;19.50;17.75;;;;;8.38;46.88;102313.66;4822741;29;12550;-64
2021/11/25 12:04:08;;;;;;;;;12.25;12.25;;;;;8.29;46.63;102321.63;4839966;29;11697;-64
2021/11/25 12:06:48;;;;;;;;;14.00;14.00;;;;;8.29;47.11;102315.28;4842821;29;11700;-65
2021/11/25 12:09:52;;;;;;;;;16.25;16.25;;;;;8.32;47.11;102317.50;4840113;29;11666;-65
2021/11/25 12:13:07;;;;;;;;;12.75;12.75;;;;;7.92;47.96;102313.63;4834128;29;11665;-65
2021/11/25 12:16:19;;;;;;;;;15.25;13.00;;;;;7.94;48.18;102314.16;4840796;29;11652;-65
2021/11/25 12:19:23;;;;;;;;;11.25;11.25;;;;;7.71;48.97;102317.44;4832258;29;11757;-66
2021/11/25 12:22:21;;;;;;;;;17.25;15.00;;;;;7.54;48.80;102317.66;4824523;29;11699;-64
2021/11/25 12:25:39;;;;;;;;;16.00;15.25;;;;;7.55;48.04;102311.06;4841666;29;11761;-64
2021/11/25 12:28:41;;;;;;;;;14.00;14.00;;;;;7.51;47.83;102307.16;4840349;29;11662;-65
2021/11/25 12:33:57;;;;;;;;;19.00;19.00;;;;;7.20;49.05;102307.06;4838866;29;11770;-65
2021/11/25 12:36:52;;;;;;;;;18.25;15.50;;;;;7.18;49.15;102309.25;4839861;29;12562;-65
2021/11/25 12:39:39;;;;;;;;;17.25;17.25;;;;;7.08;49.08;102305.66;4809459;29;11876;-64
2021/11/25 12:42:08;;;;;;;;;15.00;15.00;;;;;7.04;49.16;102304.53;4834352;29;11785;-66
2021/11/25 12:45:40;;;;;;;;;15.00;15.00;;;;;7.05;49.26;102303.41;4823531;29;11860;-66
2021/11/25 12:48:40;;;;;;;;;14.75;14.75;;;;;6.96;49.47;102303.09;4832798;29;11844;-66
2021/11/25 12:51:36;;;;;;;;;13.75;13.75;;;;;6.83;49.54;102298.94;4831211;29;11741;-66